sensor_id;sensor_type;location;lat;lon;timestamp;pressure;altitude;pressure_sealevel;temperature;humidity
42771;BME280;28426;42.872;25.314;2023-07-13T00:00:40;97061.03;;;21.76;63.42
42771;BME280;28426;42.872;25.314;2023-07-13T00:03:11;97063.44;;;21.73;63.37
42771;BME280;28426;42.872;25.314;2023-07-13T00:05:43;97054.41;;;21.67;64.24
42771;BME280;28426;42.872;25.314;2023-07-13T00:08:18;97064.13;;;21.63;63.54
42771;BME280;28426;42.872;25.314;2023-07-13T00:10:52;97062.19;;;21.58;63.80
42771;BME280;28426;42.872;25.314;2023-07-13T00:13:23;97053.75;;;21.54;63.84
42771;BME280;28426;42.872;25.314;2023-07-13T00:15:54;97056.97;;;21.51;63.90
42771;BME280;28426;42.872;25.314;2023-07-13T00:18:25;97057.75;;;21.47;63.96
42771;BME280;28426;42.872;25.314;2023-07-13T00:20:57;97060.72;;;21.45;64.00
42771;BME280;28426;42.872;25.314;2023-07-13T00:23:35;97056.88;;;21.41;64.64
42771;BME280;28426;42.872;25.314;2023-07-13T00:26:08;97053.03;;;21.37;64.64
42771;BME280;28426;42.872;25.314;2023-07-13T00:28:40;97048.69;;;21.36;64.75
42771;BME280;28426;42.872;25.314;2023-07-13T00:31:12;97047.06;;;21.35;64.45
42771;BME280;28426;42.872;25.314;2023-07-13T00:33:44;97049.19;;;21.33;64.05
42771;BME280;28426;42.872;25.314;2023-07-13T00:36:15;97045.94;;;21.30;63.89
42771;BME280;28426;42.872;25.314;2023-07-13T00:38:49;97043.47;;;21.29;64.15
42771;BME280;28426;42.872;25.314;2023-07-13T00:41:20;97048.00;;;21.23;63.87
42771;BME280;28426;42.872;25.314;2023-07-13T00:43:51;97050.72;;;21.23;64.58
42771;BME280;28426;42.872;25.314;2023-07-13T00:46:25;97044.16;;;21.19;64.42
42771;BME280;28426;42.872;25.314;2023-07-13T00:49:00;97043.38;;;21.19;64.50
42771;BME280;28426;42.872;25.314;2023-07-13T00:51:37;97045.75;;;21.15;64.98
42771;BME280;28426;42.872;25.314;2023-07-13T00:54:14;97044.38;;;21.12;64.48
42771;BME280;28426;42.872;25.314;2023-07-13T00:56:47;97047.34;;;21.11;64.80
42771;BME280;28426;42.872;25.314;2023-07-13T00:59:20;97039.97;;;21.06;64.83
42771;BME280;28426;42.872;25.314;2023-07-13T01:01:52;97040.78;;;21.07;65.18
42771;BME280;28426;42.872;25.314;2023-07-13T01:04:24;97041.31;;;21.03;64.75
42771;BME280;28426;42.872;25.314;2023-07-13T01:06:55;97035.31;;;21.01;65.48
42771;BME280;28426;42.872;25.314;2023-07-13T01:09:30;97028.25;;;21.00;64.96
42771;BME280;28426;42.872;25.314;2023-07-13T01:12:01;97029.31;;;20.99;64.77
42771;BME280;28426;42.872;25.314;2023-07-13T01:14:32;97029.81;;;20.96;65.31
42771;BME280;28426;42.872;25.314;2023-07-13T01:17:04;97024.09;;;20.93;65.51
42771;BME280;28426;42.872;25.314;2023-07-13T01:19:37;97033.31;;;20.92;65.30
42771;BME280;28426;42.872;25.314;2023-07-13T01:22:13;97027.78;;;20.86;65.85
42771;BME280;28426;42.872;25.314;2023-07-13T01:24:46;97032.97;;;20.88;65.65
42771;BME280;28426;42.872;25.314;2023-07-13T01:27:20;97039.69;;;20.85;65.49
42771;BME280;28426;42.872;25.314;2023-07-13T01:29:52;97039.41;;;20.82;66.30
42771;BME280;28426;42.872;25.314;2023-07-13T01:32:30;97039.09;;;20.78;65.76
42771;BME280;28426;42.872;25.314;2023-07-13T01:35:02;97031.22;;;20.76;65.99
42771;BME280;28426;42.872;25.314;2023-07-13T01:37:35;97038.75;;;20.74;66.14
42771;BME280;28426;42.872;25.314;2023-07-13T01:40:09;97037.97;;;20.74;65.91
42771;BME280;28426;42.872;25.314;2023-07-13T01:42:40;97040.91;;;20.72;66.11
42771;BME280;28426;42.872;25.314;2023-07-13T01:45:12;97032.19;;;20.70;65.99
42771;BME280;28426;42.872;25.314;2023-07-13T01:47:43;97028.94;;;20.68;66.03
42771;BME280;28426;42.872;25.314;2023-07-13T01:50:14;97030.50;;;20.64;66.59
42771;BME280;28426;42.872;25.314;2023-07-13T01:52:49;97036.44;;;20.61;66.72
42771;BME280;28426;42.872;25.314;2023-07-13T01:55:20;97023.66;;;20.56;66.48
42771;BME280;28426;42.872;25.314;2023-07-13T01:57:52;97031.44;;;20.52;66.55
42771;BME280;28426;42.872;25.314;2023-07-13T02:00:23;97031.97;;;20.49;66.37
42771;BME280;28426;42.872;25.314;2023-07-13T02:02:54;97033.53;;;20.45;66.51
42771;BME280;28426;42.872;25.314;2023-07-13T02:05:25;97034.63;;;20.44;66.66
42771;BME280;28426;42.872;25.314;2023-07-13T02:07:59;97035.09;;;20.41;66.63
42771;BME280;28426;42.872;25.314;2023-07-13T02:10:31;97030.16;;;20.38;66.92
42771;BME280;28426;42.872;25.314;2023-07-13T02:13:05;97033.41;;;20.35;66.68
42771;BME280;28426;42.872;25.314;2023-07-13T02:15:38;97036.38;;;20.33;67.24
42771;BME280;28426;42.872;25.314;2023-07-13T02:18:11;97035.22;;;20.29;67.61
42771;BME280;28426;42.872;25.314;2023-07-13T02:21:04;97034.88;;;20.25;67.31
42771;BME280;28426;42.872;25.314;2023-07-13T02:23:38;97029.72;;;20.24;67.18
42771;BME280;28426;42.872;25.314;2023-07-13T02:26:08;97038.09;;;20.22;67.59
42771;BME280;28426;42.872;25.314;2023-07-13T02:28:39;97036.97;;;20.18;67.79
42771;BME280;28426;42.872;25.314;2023-07-13T02:31:14;97035.56;;;20.16;67.51
42771;BME280;28426;42.872;25.314;2023-07-13T02:33:46;97032.53;;;20.12;67.73
42771;BME280;28426;42.872;25.314;2023-07-13T02:36:17;97033.59;;;20.11;67.21
42771;BME280;28426;42.872;25.314;2023-07-13T02:38:52;97039.00;;;20.11;68.05
42771;BME280;28426;42.872;25.314;2023-07-13T02:41:23;97038.47;;;20.09;68.01
42771;BME280;28426;42.872;25.314;2023-07-13T02:43:54;97038.94;;;20.06;67.46
42771;BME280;28426;42.872;25.314;2023-07-13T02:46:31;97038.63;;;20.02;67.99
42771;BME280;28426;42.872;25.314;2023-07-13T02:49:03;97037.78;;;20.02;68.01
42771;BME280;28426;42.872;25.314;2023-07-13T02:51:34;97043.69;;;19.98;68.34
42771;BME280;28426;42.872;25.314;2023-07-13T02:54:09;97039.84;;;19.94;67.99
42771;BME280;28426;42.872;25.314;2023-07-13T02:56:41;97041.72;;;19.94;68.10
42771;BME280;28426;42.872;25.314;2023-07-13T02:59:13;97042.78;;;19.93;68.32
42771;BME280;28426;42.872;25.314;2023-07-13T03:01:44;97046.81;;;19.90;67.98
42771;BME280;28426;42.872;25.314;2023-07-13T03:04:15;97050.56;;;19.89;68.27
42771;BME280;28426;42.872;25.314;2023-07-13T03:06:47;97048.94;;;19.88;68.40
42771;BME280;28426;42.872;25.314;2023-07-13T03:09:21;97046.47;;;19.86;68.61
42771;BME280;28426;42.872;25.314;2023-07-13T03:11:54;97047.31;;;19.87;68.54
42771;BME280;28426;42.872;25.314;2023-07-13T03:14:30;97048.38;;;19.86;68.43
42771;BME280;28426;42.872;25.314;2023-07-13T03:17:04;97044.00;;;19.85;68.33
42771;BME280;28426;42.872;25.314;2023-07-13T03:19:39;97046.97;;;19.83;68.82
42771;BME280;28426;42.872;25.314;2023-07-13T03:22:11;97045.31;;;19.82;69.05
42771;BME280;28426;42.872;25.314;2023-07-13T03:24:45;97047.22;;;19.82;68.35
42771;BME280;28426;42.872;25.314;2023-07-13T03:27:17;97039.09;;;19.82;68.33
42771;BME280;28426;42.872;25.314;2023-07-13T03:29:49;97046.16;;;19.83;68.76
42771;BME280;28426;42.872;25.314;2023-07-13T03:32:20;97047.78;;;19.84;68.12
42771;BME280;28426;42.872;25.314;2023-07-13T03:34:51;97043.19;;;19.84;68.18
42771;BME280;28426;42.872;25.314;2023-07-13T03:37:23;97044.84;;;19.85;68.25
42771;BME280;28426;42.872;25.314;2023-07-13T03:39:57;97036.47;;;19.87;68.42
42771;BME280;28426;42.872;25.314;2023-07-13T03:42:30;97044.09;;;19.90;68.33
42771;BME280;28426;42.872;25.314;2023-07-13T03:45:02;97049.25;;;19.92;68.24
42771;BME280;28426;42.872;25.314;2023-07-13T03:47:33;97048.53;;;19.96;68.06
42771;BME280;28426;42.872;25.314;2023-07-13T03:50:06;97050.53;;;20.01;67.88
42771;BME280;28426;42.872;25.314;2023-07-13T03:52:37;97036.81;;;20.08;68.38
42771;BME280;28426;42.872;25.314;2023-07-13T03:55:11;97049.91;;;20.16;68.55
42771;BME280;28426;42.872;25.314;2023-07-13T03:57:42;97044.66;;;20.27;68.26
42771;BME280;28426;42.872;25.314;2023-07-13T04:00:14;97039.06;;;20.33;68.08
42771;BME280;28426;42.872;25.314;2023-07-13T04:02:45;97046.59;;;20.48;67.50
42771;BME280;28426;42.872;25.314;2023-07-13T04:05:17;97051.88;;;20.60;67.24
42771;BME280;28426;42.872;25.314;2023-07-13T04:07:48;97052.56;;;20.73;66.78
42771;BME280;28426;42.872;25.314;2023-07-13T04:10:21;97051.06;;;20.82;66.75
42771;BME280;28426;42.872;25.314;2023-07-13T04:12:52;97046.59;;;20.93;66.13
42771;BME280;28426;42.872;25.314;2023-07-13T04:15:23;97041.31;;;21.03;65.67
42771;BME280;28426;42.872;25.314;2023-07-13T04:17:54;97051.19;;;21.15;65.44
42771;BME280;28426;42.872;25.314;2023-07-13T04:20:26;97048.59;;;21.25;65.44
42771;BME280;28426;42.872;25.314;2023-07-13T04:22:57;97054.13;;;21.36;65.31
42771;BME280;28426;42.872;25.314;2023-07-13T04:25:31;97055.28;;;21.45;65.17
42771;BME280;28426;42.872;25.314;2023-07-13T04:28:03;97054.00;;;21.53;64.20
42771;BME280;28426;42.872;25.314;2023-07-13T04:30:35;97054.63;;;21.60;64.43
42771;BME280;28426;42.872;25.314;2023-07-13T04:33:05;97061.47;;;21.68;63.91
42771;BME280;28426;42.872;25.314;2023-07-13T04:35:36;97055.59;;;21.76;63.42
42771;BME280;28426;42.872;25.314;2023-07-13T04:38:07;97057.59;;;21.86;63.85
42771;BME280;28426;42.872;25.314;2023-07-13T04:40:42;97059.53;;;21.96;63.11
42771;BME280;28426;42.872;25.314;2023-07-13T04:43:13;97057.16;;;22.05;62.70
42771;BME280;28426;42.872;25.314;2023-07-13T04:45:44;97060.78;;;22.16;63.11
42771;BME280;28426;42.872;25.314;2023-07-13T04:48:15;97059.50;;;22.29;62.95
42771;BME280;28426;42.872;25.314;2023-07-13T04:50:46;97069.06;;;22.42;62.87
42771;BME280;28426;42.872;25.314;2023-07-13T04:53:17;97059.69;;;22.60;62.19
42771;BME280;28426;42.872;25.314;2023-07-13T04:55:51;97055.16;;;22.81;62.39
42771;BME280;28426;42.872;25.314;2023-07-13T04:58:22;97053.34;;;23.08;62.26
42771;BME280;28426;42.872;25.314;2023-07-13T05:00:53;97059.72;;;23.40;62.07
42771;BME280;28426;42.872;25.314;2023-07-13T05:03:30;97058.63;;;23.77;61.77
42771;BME280;28426;42.872;25.314;2023-07-13T05:06:03;97057.59;;;24.14;60.48
42771;BME280;28426;42.872;25.314;2023-07-13T05:08:35;97055.56;;;24.51;59.26
42771;BME280;28426;42.872;25.314;2023-07-13T05:11:08;97056.28;;;24.88;58.36
42771;BME280;28426;42.872;25.314;2023-07-13T05:13:40;97060.47;;;25.26;57.59
42771;BME280;28426;42.872;25.314;2023-07-13T05:16:10;97058.31;;;25.68;56.58
42771;BME280;28426;42.872;25.314;2023-07-13T05:18:41;97057.97;;;26.09;55.63
42771;BME280;28426;42.872;25.314;2023-07-13T05:21:12;97059.00;;;26.48;54.45
42771;BME280;28426;42.872;25.314;2023-07-13T05:23:43;97059.38;;;26.85;53.59
42771;BME280;28426;42.872;25.314;2023-07-13T05:26:17;97062.19;;;27.24;52.67
42771;BME280;28426;42.872;25.314;2023-07-13T05:28:48;97061.13;;;27.58;51.60
42771;BME280;28426;42.872;25.314;2023-07-13T05:31:19;97066.41;;;27.93;51.49
42771;BME280;28426;42.872;25.314;2023-07-13T05:33:50;97060.63;;;28.28;50.41
42771;BME280;28426;42.872;25.314;2023-07-13T05:36:21;97053.13;;;28.62;49.57
42771;BME280;28426;42.872;25.314;2023-07-13T05:38:51;97057.19;;;28.92;48.76
42771;BME280;28426;42.872;25.314;2023-07-13T05:41:25;97062.34;;;29.22;47.42
42771;BME280;28426;42.872;25.314;2023-07-13T05:43:56;97061.38;;;29.55;48.02
42771;BME280;28426;42.872;25.314;2023-07-13T05:46:27;97067.91;;;29.91;46.75
42771;BME280;28426;42.872;25.314;2023-07-13T05:48:58;97059.13;;;30.25;46.24
42771;BME280;28426;42.872;25.314;2023-07-13T05:51:29;97060.38;;;30.60;45.73
42771;BME280;28426;42.872;25.314;2023-07-13T05:54:00;97056.47;;;30.92;45.35
42771;BME280;28426;42.872;25.314;2023-07-13T05:56:34;97065.28;;;31.30;44.99
42771;BME280;28426;42.872;25.314;2023-07-13T05:59:05;97062.09;;;31.63;42.51
42771;BME280;28426;42.872;25.314;2023-07-13T06:01:36;97059.47;;;31.93;42.36
42771;BME280;28426;42.872;25.314;2023-07-13T06:04:07;97060.56;;;32.19;41.20
42771;BME280;28426;42.872;25.314;2023-07-13T06:06:38;97059.38;;;32.46;40.81
42771;BME280;28426;42.872;25.314;2023-07-13T06:09:09;97061.41;;;32.67;40.90
42771;BME280;28426;42.872;25.314;2023-07-13T06:11:42;97055.41;;;32.95;40.51
42771;BME280;28426;42.872;25.314;2023-07-13T06:14:13;97057.69;;;33.23;40.40
42771;BME280;28426;42.872;25.314;2023-07-13T06:16:44;97056.81;;;33.53;39.40
42771;BME280;28426;42.872;25.314;2023-07-13T06:19:15;97058.91;;;33.77;39.46
42771;BME280;28426;42.872;25.314;2023-07-13T06:21:45;97044.00;;;34.03;39.58
42771;BME280;28426;42.872;25.314;2023-07-13T06:24:16;97060.50;;;34.34;38.89
42771;BME280;28426;42.872;25.314;2023-07-13T06:26:50;97050.94;;;34.56;37.61
42771;BME280;28426;42.872;25.314;2023-07-13T06:29:21;97048.53;;;34.79;37.16
42771;BME280;28426;42.872;25.314;2023-07-13T06:31:51;97050.50;;;34.91;36.06
42771;BME280;28426;42.872;25.314;2023-07-13T06:34:22;97053.94;;;35.01;36.54
42771;BME280;28426;42.872;25.314;2023-07-13T06:36:53;97054.06;;;35.04;36.50
42771;BME280;28426;42.872;25.314;2023-07-13T06:39:24;97054.88;;;35.17;36.10
42771;BME280;28426;42.872;25.314;2023-07-13T06:41:57;97053.81;;;35.34;36.24
42771;BME280;28426;42.872;25.314;2023-07-13T06:44:28;97054.44;;;35.56;36.14
42771;BME280;28426;42.872;25.314;2023-07-13T06:46:59;97055.97;;;35.82;35.91
42771;BME280;28426;42.872;25.314;2023-07-13T06:49:30;97044.13;;;36.14;35.56
42771;BME280;28426;42.872;25.314;2023-07-13T06:52:01;97054.03;;;36.44;35.36
42771;BME280;28426;42.872;25.314;2023-07-13T06:54:31;97050.47;;;36.75;35.53
42771;BME280;28426;42.872;25.314;2023-07-13T06:57:05;97059.53;;;37.08;34.67
42771;BME280;28426;42.872;25.314;2023-07-13T06:59:36;97061.81;;;37.38;33.90
42771;BME280;28426;42.872;25.314;2023-07-13T07:02:09;97052.09;;;37.48;32.85
42771;BME280;28426;42.872;25.314;2023-07-13T07:04:40;97050.78;;;37.62;32.60
42771;BME280;28426;42.872;25.314;2023-07-13T07:07:11;97055.66;;;38.08;31.45
42771;BME280;28426;42.872;25.314;2023-07-13T07:09:42;97049.53;;;38.65;30.90
42771;BME280;28426;42.872;25.314;2023-07-13T07:12:15;97040.78;;;39.17;29.30
42771;BME280;28426;42.872;25.314;2023-07-13T07:14:46;97043.59;;;39.52;28.99
42771;BME280;28426;42.872;25.314;2023-07-13T07:17:17;97053.00;;;39.70;29.15
42771;BME280;28426;42.872;25.314;2023-07-13T07:19:51;97053.19;;;39.85;28.89
42771;BME280;28426;42.872;25.314;2023-07-13T07:22:22;97036.09;;;39.90;28.54
42771;BME280;28426;42.872;25.314;2023-07-13T07:24:55;97042.25;;;40.07;29.07
42771;BME280;28426;42.872;25.314;2023-07-13T07:27:28;97038.06;;;40.27;28.44
42771;BME280;28426;42.872;25.314;2023-07-13T07:30:02;97042.91;;;40.34;28.77
42771;BME280;28426;42.872;25.314;2023-07-13T07:32:37;97044.91;;;40.34;28.27
42771;BME280;28426;42.872;25.314;2023-07-13T07:35:10;97042.44;;;40.25;27.58
42771;BME280;28426;42.872;25.314;2023-07-13T07:37:41;97045.16;;;40.18;27.34
42771;BME280;28426;42.872;25.314;2023-07-13T07:40:17;97043.94;;;40.15;28.07
42771;BME280;28426;42.872;25.314;2023-07-13T07:42:53;97038.72;;;40.13;28.48
42771;BME280;28426;42.872;25.314;2023-07-13T07:45:23;97043.56;;;40.17;29.17
42771;BME280;28426;42.872;25.314;2023-07-13T07:47:54;97043.25;;;40.25;29.14
42771;BME280;28426;42.872;25.314;2023-07-13T07:50:27;97041.81;;;40.43;28.71
42771;BME280;28426;42.872;25.314;2023-07-13T07:52:58;97042.38;;;40.63;28.36
42771;BME280;28426;42.872;25.314;2023-07-13T07:55:29;97036.19;;;40.88;28.35
42771;BME280;28426;42.872;25.314;2023-07-13T07:58:09;97042.34;;;41.15;27.81
42771;BME280;28426;42.872;25.314;2023-07-13T08:01:03;97044.09;;;41.42;27.06
42771;BME280;28426;42.872;25.314;2023-07-13T08:03:37;97044.56;;;41.58;26.05
42771;BME280;28426;42.872;25.314;2023-07-13T08:06:11;97047.03;;;41.71;25.07
42771;BME280;28426;42.872;25.314;2023-07-13T08:09:02;97045.50;;;41.81;24.88
42771;BME280;28426;42.872;25.314;2023-07-13T08:11:33;97036.69;;;41.90;24.59
42771;BME280;28426;42.872;25.314;2023-07-13T08:14:10;97041.53;;;42.00;24.81
42771;BME280;28426;42.872;25.314;2023-07-13T08:16:41;97040.34;;;42.08;23.02
42771;BME280;28426;42.872;25.314;2023-07-13T08:19:12;97034.34;;;42.14;23.76
42771;BME280;28426;42.872;25.314;2023-07-13T08:21:43;97040.75;;;42.14;23.34
42771;BME280;28426;42.872;25.314;2023-07-13T08:24:15;97033.16;;;42.15;23.32
42771;BME280;28426;42.872;25.314;2023-07-13T08:26:47;97043.59;;;42.18;23.36
42771;BME280;28426;42.872;25.314;2023-07-13T08:29:20;97040.41;;;42.27;23.30
42771;BME280;28426;42.872;25.314;2023-07-13T08:31:51;97046.41;;;42.36;23.20
42771;BME280;28426;42.872;25.314;2023-07-13T08:34:22;97039.19;;;42.39;22.77
42771;BME280;28426;42.872;25.314;2023-07-13T08:36:53;97045.59;;;42.46;22.95
42771;BME280;28426;42.872;25.314;2023-07-13T08:39:24;97049.22;;;42.58;23.37
42771;BME280;28426;42.872;25.314;2023-07-13T08:42:02;97040.44;;;42.67;22.68
42771;BME280;28426;42.872;25.314;2023-07-13T08:44:47;97046.44;;;42.69;21.44
42771;BME280;28426;42.872;25.314;2023-07-13T08:47:24;97047.63;;;42.68;21.88
42771;BME280;28426;42.872;25.314;2023-07-13T08:49:55;97044.44;;;42.69;22.11
42771;BME280;28426;42.872;25.314;2023-07-13T08:52:32;97040.81;;;42.76;21.87
42771;BME280;28426;42.872;25.314;2023-07-13T08:55:11;97044.03;;;42.82;20.88
42771;BME280;28426;42.872;25.314;2023-07-13T08:57:46;97040.78;;;42.91;20.98
42771;BME280;28426;42.872;25.314;2023-07-13T09:00:25;97037.59;;;43.03;21.60
42771;BME280;28426;42.872;25.314;2023-07-13T09:03:03;97031.56;;;43.08;19.90
42771;BME280;28426;42.872;25.314;2023-07-13T09:05:39;97026.78;;;43.05;21.74
42771;BME280;28426;42.872;25.314;2023-07-13T09:08:24;97023.56;;;42.96;20.87
42771;BME280;28426;42.872;25.314;2023-07-13T09:11:11;97015.53;;;42.94;21.34
42771;BME280;28426;42.872;25.314;2023-07-13T09:13:54;97014.38;;;42.81;19.72
42771;BME280;28426;42.872;25.314;2023-07-13T09:16:30;97006.75;;;42.52;20.87
42771;BME280;28426;42.872;25.314;2023-07-13T09:19:04;97006.34;;;42.57;20.12
42771;BME280;28426;42.872;25.314;2023-07-13T09:21:40;97003.16;;;42.73;19.65
42771;BME280;28426;42.872;25.314;2023-07-13T09:24:29;97006.72;;;42.89;18.51
42771;BME280;28426;42.872;25.314;2023-07-13T09:27:05;97008.72;;;42.95;19.15
42771;BME280;28426;42.872;25.314;2023-07-13T09:29:43;97003.88;;;43.14;18.78
42771;BME280;28426;42.872;25.314;2023-07-13T09:32:21;97004.22;;;43.31;18.67
42771;BME280;28426;42.872;25.314;2023-07-13T09:34:53;97003.03;;;43.28;18.20
42771;BME280;28426;42.872;25.314;2023-07-13T09:37:30;97005.84;;;43.21;19.27
42771;BME280;28426;42.872;25.314;2023-07-13T09:40:02;97010.28;;;43.18;19.42
42771;BME280;28426;42.872;25.314;2023-07-13T09:42:37;97011.94;;;43.05;19.92
42771;BME280;28426;42.872;25.314;2023-07-13T09:45:08;97013.13;;;43.04;19.99
42771;BME280;28426;42.872;25.314;2023-07-13T09:47:42;97002.69;;;43.04;20.66
42771;BME280;28426;42.872;25.314;2023-07-13T09:50:15;96996.69;;;42.95;19.81
42771;BME280;28426;42.872;25.314;2023-07-13T09:52:49;97003.13;;;42.88;19.54
42771;BME280;28426;42.872;25.314;2023-07-13T09:55:26;96999.94;;;42.82;20.28
42771;BME280;28426;42.872;25.314;2023-07-13T09:58:03;97003.13;;;42.77;18.84
42771;BME280;28426;42.872;25.314;2023-07-13T10:00:35;97001.94;;;42.78;19.11
42771;BME280;28426;42.872;25.314;2023-07-13T10:03:18;96996.75;;;42.66;19.52
42771;BME280;28426;42.872;25.314;2023-07-13T10:05:51;96995.91;;;42.54;20.18
42771;BME280;28426;42.872;25.314;2023-07-13T10:08:25;96999.13;;;42.56;20.65
42771;BME280;28426;42.872;25.314;2023-07-13T10:10:59;96996.75;;;42.66;20.50
42771;BME280;28426;42.872;25.314;2023-07-13T10:13:34;96998.34;;;42.67;20.63
42771;BME280;28426;42.872;25.314;2023-07-13T10:16:06;96997.53;;;42.66;21.09
42771;BME280;28426;42.872;25.314;2023-07-13T10:18:46;96996.75;;;42.66;21.54
42771;BME280;28426;42.872;25.314;2023-07-13T10:21:20;96993.53;;;42.71;21.82
42771;BME280;28426;42.872;25.314;2023-07-13T10:24:18;96989.94;;;42.67;21.24
42771;BME280;28426;42.872;25.314;2023-07-13T10:26:55;96996.72;;;42.58;21.23
42771;BME280;28426;42.872;25.314;2023-07-13T10:29:29;96990.72;;;42.49;21.22
42771;BME280;28426;42.872;25.314;2023-07-13T10:32:04;96987.13;;;42.41;21.18
42771;BME280;28426;42.872;25.314;2023-07-13T10:34:45;96985.13;;;42.38;21.74
42771;BME280;28426;42.872;25.314;2023-07-13T10:37:21;96985.53;;;42.44;22.33
42771;BME280;28426;42.872;25.314;2023-07-13T10:39:54;96984.31;;;42.52;22.19
42771;BME280;28426;42.872;25.314;2023-07-13T10:42:30;96988.31;;;42.58;22.09
42771;BME280;28426;42.872;25.314;2023-07-13T10:45:03;96989.13;;;42.66;21.93
42771;BME280;28426;42.872;25.314;2023-07-13T10:47:42;96986.31;;;42.70;21.49
42771;BME280;28426;42.872;25.314;2023-07-13T10:50:19;96983.53;;;42.63;21.40
42771;BME280;28426;42.872;25.314;2023-07-13T10:52:52;96978.31;;;42.54;21.55
42771;BME280;28426;42.872;25.314;2023-07-13T10:55:37;96982.72;;;42.15;21.43
42771;BME280;28426;42.872;25.314;2023-07-13T10:58:14;96983.88;;;41.99;21.63
42771;BME280;28426;42.872;25.314;2023-07-13T11:01:01;96985.50;;;42.15;22.65
42771;BME280;28426;42.872;25.314;2023-07-13T11:03:35;96988.72;;;42.31;22.14
42771;BME280;28426;42.872;25.314;2023-07-13T11:06:15;96993.53;;;42.34;22.13
42771;BME280;28426;42.872;25.314;2023-07-13T11:08:54;96994.75;;;42.37;21.38
42771;BME280;28426;42.872;25.314;2023-07-13T11:11:34;96997.91;;;42.14;22.23
42771;BME280;28426;42.872;25.314;2023-07-13T11:14:27;96988.69;;;41.88;22.17
42771;BME280;28426;42.872;25.314;2023-07-13T11:16:58;96992.56;;;41.54;23.29
42771;BME280;28426;42.872;25.314;2023-07-13T11:19:51;96996.50;;;41.35;23.30
42771;BME280;28426;42.872;25.314;2023-07-13T11:22:41;96989.91;;;41.01;23.84
42771;BME280;28426;42.872;25.314;2023-07-13T11:25:27;96984.94;;;40.76;24.53
42771;BME280;28426;42.872;25.314;2023-07-13T11:28:15;96988.44;;;40.59;25.13
42771;BME280;28426;42.872;25.314;2023-07-13T11:30:49;96981.56;;;40.49;24.58
42771;BME280;28426;42.872;25.314;2023-07-13T11:33:22;96976.72;;;40.42;24.81
42771;BME280;28426;42.872;25.314;2023-07-13T11:36:03;96974.97;;;40.26;24.68
42771;BME280;28426;42.872;25.314;2023-07-13T11:38:38;96970.88;;;40.13;24.21
42771;BME280;28426;42.872;25.314;2023-07-13T11:41:16;96974.97;;;39.85;24.49
42771;BME280;28426;42.872;25.314;2023-07-13T11:43:49;96967.56;;;39.62;24.59
42771;BME280;28426;42.872;25.314;2023-07-13T11:46:22;96965.97;;;39.30;25.41
42771;BME280;28426;42.872;25.314;2023-07-13T11:48:54;96968.66;;;38.92;26.25
42771;BME280;28426;42.872;25.314;2023-07-13T11:51:26;96966.75;;;38.69;26.36
42771;BME280;28426;42.872;25.314;2023-07-13T11:54:03;96965.19;;;38.49;26.72
42771;BME280;28426;42.872;25.314;2023-07-13T11:56:36;96963.00;;;38.35;26.87
42771;BME280;28426;42.872;25.314;2023-07-13T11:59:10;96963.56;;;38.20;27.13
42771;BME280;28426;42.872;25.314;2023-07-13T12:01:44;96952.91;;;38.03;26.59
42771;BME280;28426;42.872;25.314;2023-07-13T12:04:21;96944.34;;;37.92;27.12
42771;BME280;28426;42.872;25.314;2023-07-13T12:06:56;96952.53;;;37.81;27.20
42771;BME280;28426;42.872;25.314;2023-07-13T12:09:29;96957.53;;;37.72;27.70
42771;BME280;28426;42.872;25.314;2023-07-13T12:12:00;96947.47;;;37.63;28.17
42771;BME280;28426;42.872;25.314;2023-07-13T12:14:34;96944.50;;;37.56;27.96
42771;BME280;28426;42.872;25.314;2023-07-13T12:17:09;96945.59;;;37.51;28.01
42771;BME280;28426;42.872;25.314;2023-07-13T12:19:42;96952.69;;;37.49;28.32
42771;BME280;28426;42.872;25.314;2023-07-13T12:22:17;96945.84;;;37.42;28.34
42771;BME280;28426;42.872;25.314;2023-07-13T12:24:51;96935.78;;;37.38;28.05
42771;BME280;28426;42.872;25.314;2023-07-13T12:27:25;96929.75;;;37.32;27.65
42771;BME280;28426;42.872;25.314;2023-07-13T12:29:59;96918.03;;;37.23;28.34
42771;BME280;28426;42.872;25.314;2023-07-13T12:32:32;96923.59;;;37.23;28.28
42771;BME280;28426;42.872;25.314;2023-07-13T12:35:14;96918.31;;;37.17;27.94
42771;BME280;28426;42.872;25.314;2023-07-13T12:37:51;96910.97;;;37.09;27.66
42771;BME280;28426;42.872;25.314;2023-07-13T12:40:28;96908.88;;;37.02;28.70
42771;BME280;28426;42.872;25.314;2023-07-13T12:43:04;96901.19;;;36.96;29.02
42771;BME280;28426;42.872;25.314;2023-07-13T12:45:35;96898.25;;;36.88;29.22
42771;BME280;28426;42.872;25.314;2023-07-13T12:48:13;96900.59;;;36.86;29.53
42771;BME280;28426;42.872;25.314;2023-07-13T12:50:56;96888.13;;;36.80;29.05
42771;BME280;28426;42.872;25.314;2023-07-13T12:53:40;96890.13;;;36.80;29.56
42771;BME280;28426;42.872;25.314;2023-07-13T12:56:19;96873.00;;;36.77;29.68
42771;BME280;28426;42.872;25.314;2023-07-13T12:58:56;96878.91;;;36.76;29.97
42771;BME280;28426;42.872;25.314;2023-07-13T13:01:28;96882.88;;;36.75;29.76
42771;BME280;28426;42.872;25.314;2023-07-13T13:04:01;96875.69;;;36.74;29.36
42771;BME280;28426;42.872;25.314;2023-07-13T13:06:36;96868.44;;;36.69;29.17
42771;BME280;28426;42.872;25.314;2023-07-13T13:09:12;96868.44;;;36.69;29.68
42771;BME280;28426;42.872;25.314;2023-07-13T13:11:46;96866.41;;;36.66;29.70
42771;BME280;28426;42.872;25.314;2023-07-13T13:14:18;96854.38;;;36.62;30.25
42771;BME280;28426;42.872;25.314;2023-07-13T13:16:50;96863.09;;;36.60;30.78
42771;BME280;28426;42.872;25.314;2023-07-13T13:19:25;96864.97;;;36.56;31.05
42771;BME280;28426;42.872;25.314;2023-07-13T13:21:56;96859.72;;;36.51;31.19
42771;BME280;28426;42.872;25.314;2023-07-13T13:24:28;96865.16;;;36.47;31.32